Overview Statistics Trail Chart Weather Telemetry Raw packets
 

This is the latest recevied weather packets stored in our database for station/object K1BES. If no packets are shown the sender has not sent any weather packets the latest 10 day(s).

<< 75 76 77 78 79 80 81 >>
Time Temp. Humidity Pressure Rain* Wind** Luminosity Snow
1788105219 32.78° C 68% 1019.8 hPa 0 mm - 722 W/m² -
1788104919 32.22° C 70% 1019.8 hPa 0 mm - 1003 W/m² -
1788104615 31.67° C 70% 1019.9 hPa 0 mm - 1021 W/m² -
1788104312 31.67° C 71% 1019.9 hPa 0 mm - 1070 W/m² -
1788104007 32.22° C 70% 1019.8 hPa 0 mm - 153 W/m² -
1788103705 32.78° C 68% 1019.6 hPa 0 mm - 220 W/m² -
1788103401 32.78° C 70% 1019.6 hPa 0 mm - 697 W/m² -
1788103101 31.67° C 70% 1019.8 hPa 0 mm - 868 W/m² -
1788102800 32.78° C 70% 1019.6 hPa 0 mm - 190 W/m² -
1788102495 32.22° C 72% 1019.7 hPa 0 mm - 839 W/m² -
1788102195 31.67° C 73% 1019.9 hPa 0 mm - 802 W/m² -
1788101889 31.67° C 73% 1020 hPa 0 mm - 810 W/m² -
1788101584 31.11° C 75% 1019.9 hPa 0 mm - 758 W/m² -
1788101280 31.67° C 74% 1020.1 hPa 0 mm - 745 W/m² -
1788100975 31.11° C 74% 1020.1 hPa 0 mm - 692 W/m² -
1788100671 31.11° C 73% 1020 hPa 0 mm - 249 W/m² -
1788100370 31.11° C 76% 1020.2 hPa 0 mm - 652 W/m² -
1788100065 31.11° C 75% 1020.1 hPa 0 mm - 607 W/m² -
1788099760 31.11° C 75% 1020.2 hPa 0 mm - 544 W/m² -
1788099456 30.56° C 76% 1020.2 hPa 0 mm - 303 W/m² -
1788099151 30.56° C 77% 1020.1 hPa 0 mm - 292 W/m² -
1788098851 30.56° C 77% 1020.2 hPa 0 mm - 546 W/m² -
1788098546 30° C 78% 1020.2 hPa 0 mm - 530 W/m² -
1788098240 30° C 78% 1020 hPa 0 mm - 507 W/m² -
1788097936 30° C 80% 1019.9 hPa 0 mm - 486 W/m² -

* Rain latest hour (hover to see other rain measurements)
** Current wind speed in m/s (hover to see current wind gust speed)